sensor_id;sensor_type;location;lat;lon;timestamp;P1;durP1;ratioP1;P2;durP2;ratioP2
66559;SDS011;53413;49.878;8.142;2023-04-24T00:01:33;3.47;;;1.40;;
66559;SDS011;53413;49.878;8.142;2023-04-24T00:03:59;3.47;;;1.10;;
66559;SDS011;53413;49.878;8.142;2023-04-24T00:06:25;3.60;;;0.90;;
66559;SDS011;53413;49.878;8.142;2023-04-24T00:08:57;3.60;;;1.20;;
66559;SDS011;53413;49.878;8.142;2023-04-24T00:11:26;4.28;;;1.10;;
66559;SDS011;53413;49.878;8.142;2023-04-24T00:13:52;3.20;;;1.00;;
66559;SDS011;53413;49.878;8.142;2023-04-24T00:16:17;3.07;;;0.90;;
66559;SDS011;53413;49.878;8.142;2023-04-24T00:18:42;3.30;;;1.00;;
66559;SDS011;53413;49.878;8.142;2023-04-24T00:21:09;4.05;;;1.10;;
66559;SDS011;53413;49.878;8.142;2023-04-24T00:23:35;3.63;;;1.10;;
66559;SDS011;53413;49.878;8.142;2023-04-24T00:26:00;4.55;;;1.10;;
66559;SDS011;53413;49.878;8.142;2023-04-24T00:28:27;4.70;;;1.20;;
66559;SDS011;53413;49.878;8.142;2023-04-24T00:30:52;4.00;;;1.05;;
66559;SDS011;53413;49.878;8.142;2023-04-24T00:33:17;3.43;;;1.10;;
66559;SDS011;53413;49.878;8.142;2023-04-24T00:35:43;4.93;;;1.23;;
66559;SDS011;53413;49.878;8.142;2023-04-24T00:38:08;4.33;;;1.30;;
66559;SDS011;53413;49.878;8.142;2023-04-24T00:40:33;4.20;;;1.40;;
66559;SDS011;53413;49.878;8.142;2023-04-24T00:42:59;5.07;;;1.30;;
66559;SDS011;53413;49.878;8.142;2023-04-24T00:45:24;4.27;;;1.17;;
66559;SDS011;53413;49.878;8.142;2023-04-24T00:47:49;3.80;;;1.40;;
66559;SDS011;53413;49.878;8.142;2023-04-24T00:50:17;5.07;;;1.30;;
66559;SDS011;53413;49.878;8.142;2023-04-24T00:52:44;3.25;;;1.27;;
66559;SDS011;53413;49.878;8.142;2023-04-24T00:55:10;4.80;;;1.20;;
66559;SDS011;53413;49.878;8.142;2023-04-24T00:57:35;3.92;;;1.20;;
66559;SDS011;53413;49.878;8.142;2023-04-24T01:00:01;4.07;;;1.20;;
66559;SDS011;53413;49.878;8.142;2023-04-24T01:02:28;4.30;;;1.20;;
66559;SDS011;53413;49.878;8.142;2023-04-24T01:04:54;4.60;;;1.30;;
66559;SDS011;53413;49.878;8.142;2023-04-24T01:07:20;4.20;;;1.10;;
66559;SDS011;53413;49.878;8.142;2023-04-24T01:09:46;4.65;;;1.20;;
66559;SDS011;53413;49.878;8.142;2023-04-24T01:12:14;2.90;;;1.10;;
66559;SDS011;53413;49.878;8.142;2023-04-24T01:14:40;3.53;;;1.10;;
66559;SDS011;53413;49.878;8.142;2023-04-24T01:17:05;4.80;;;1.57;;
66559;SDS011;53413;49.878;8.142;2023-04-24T01:19:32;4.57;;;1.20;;
66559;SDS011;53413;49.878;8.142;2023-04-24T01:21:58;3.90;;;1.20;;
66559;SDS011;53413;49.878;8.142;2023-04-24T01:24:26;4.32;;;1.20;;
66559;SDS011;53413;49.878;8.142;2023-04-24T01:26:52;5.35;;;1.30;;
66559;SDS011;53413;49.878;8.142;2023-04-24T01:29:18;4.20;;;1.20;;
66559;SDS011;53413;49.878;8.142;2023-04-24T01:31:44;3.38;;;1.10;;
66559;SDS011;53413;49.878;8.142;2023-04-24T01:34:12;4.47;;;1.20;;
66559;SDS011;53413;49.878;8.142;2023-04-24T01:36:45;4.28;;;1.50;;
66559;SDS011;53413;49.878;8.142;2023-04-24T01:39:11;4.03;;;1.30;;
66559;SDS011;53413;49.878;8.142;2023-04-24T01:41:37;4.93;;;1.40;;
66559;SDS011;53413;49.878;8.142;2023-04-24T01:44:02;3.50;;;1.30;;
66559;SDS011;53413;49.878;8.142;2023-04-24T01:46:28;4.80;;;1.55;;
66559;SDS011;53413;49.878;8.142;2023-04-24T01:48:55;5.25;;;1.63;;
66559;SDS011;53413;49.878;8.142;2023-04-24T01:51:21;3.73;;;1.50;;
66559;SDS011;53413;49.878;8.142;2023-04-24T01:53:46;4.10;;;1.30;;
66559;SDS011;53413;49.878;8.142;2023-04-24T01:56:12;4.30;;;1.43;;
66559;SDS011;53413;49.878;8.142;2023-04-24T01:58:37;4.40;;;1.53;;
66559;SDS011;53413;49.878;8.142;2023-04-24T02:01:03;4.22;;;1.45;;
66559;SDS011;53413;49.878;8.142;2023-04-24T02:03:28;5.40;;;1.40;;
66559;SDS011;53413;49.878;8.142;2023-04-24T02:05:54;4.57;;;1.33;;
66559;SDS011;53413;49.878;8.142;2023-04-24T02:08:19;4.63;;;1.40;;
66559;SDS011;53413;49.878;8.142;2023-04-24T02:10:44;4.57;;;1.40;;
66559;SDS011;53413;49.878;8.142;2023-04-24T02:13:10;4.70;;;1.50;;
66559;SDS011;53413;49.878;8.142;2023-04-24T02:15:35;5.47;;;1.50;;
66559;SDS011;53413;49.878;8.142;2023-04-24T02:18:01;4.13;;;1.50;;
66559;SDS011;53413;49.878;8.142;2023-04-24T02:20:26;5.15;;;1.50;;
66559;SDS011;53413;49.878;8.142;2023-04-24T02:22:52;4.00;;;1.50;;
66559;SDS011;53413;49.878;8.142;2023-04-24T02:25:17;4.50;;;1.50;;
66559;SDS011;53413;49.878;8.142;2023-04-24T02:27:43;4.23;;;1.60;;
66559;SDS011;53413;49.878;8.142;2023-04-24T02:30:08;4.50;;;1.47;;
66559;SDS011;53413;49.878;8.142;2023-04-24T02:32:34;4.07;;;1.25;;
66559;SDS011;53413;49.878;8.142;2023-04-24T02:34:59;3.93;;;1.40;;
66559;SDS011;53413;49.878;8.142;2023-04-24T02:37:24;3.90;;;1.37;;
66559;SDS011;53413;49.878;8.142;2023-04-24T02:39:50;3.83;;;1.43;;
66559;SDS011;53413;49.878;8.142;2023-04-24T02:42:15;4.00;;;1.23;;
66559;SDS011;53413;49.878;8.142;2023-04-24T02:44:40;3.20;;;1.23;;
66559;SDS011;53413;49.878;8.142;2023-04-24T02:47:06;4.13;;;1.30;;
66559;SDS011;53413;49.878;8.142;2023-04-24T02:49:32;3.83;;;1.10;;
66559;SDS011;53413;49.878;8.142;2023-04-24T02:51:58;3.40;;;1.00;;
66559;SDS011;53413;49.878;8.142;2023-04-24T02:54:23;3.07;;;1.00;;
66559;SDS011;53413;49.878;8.142;2023-04-24T02:56:48;3.63;;;1.20;;
66559;SDS011;53413;49.878;8.142;2023-04-24T02:59:14;3.97;;;1.10;;
66559;SDS011;53413;49.878;8.142;2023-04-24T03:01:40;4.00;;;1.10;;
66559;SDS011;53413;49.878;8.142;2023-04-24T03:04:05;3.30;;;1.03;;
66559;SDS011;53413;49.878;8.142;2023-04-24T03:06:30;3.47;;;1.10;;
66559;SDS011;53413;49.878;8.142;2023-04-24T03:08:57;3.05;;;1.10;;
66559;SDS011;53413;49.878;8.142;2023-04-24T03:11:23;3.00;;;1.10;;
66559;SDS011;53413;49.878;8.142;2023-04-24T03:13:48;3.93;;;1.20;;
66559;SDS011;53413;49.878;8.142;2023-04-24T03:16:14;3.97;;;1.40;;
66559;SDS011;53413;49.878;8.142;2023-04-24T03:18:39;4.03;;;1.30;;
66559;SDS011;53413;49.878;8.142;2023-04-24T03:21:04;3.80;;;1.50;;
66559;SDS011;53413;49.878;8.142;2023-04-24T03:23:30;3.50;;;1.33;;
66559;SDS011;53413;49.878;8.142;2023-04-24T03:25:55;4.73;;;1.40;;
66559;SDS011;53413;49.878;8.142;2023-04-24T03:28:21;4.20;;;1.50;;
66559;SDS011;53413;49.878;8.142;2023-04-24T03:30:46;3.93;;;1.30;;
66559;SDS011;53413;49.878;8.142;2023-04-24T03:33:11;3.88;;;1.45;;
66559;SDS011;53413;49.878;8.142;2023-04-24T03:35:37;4.03;;;1.57;;
66559;SDS011;53413;49.878;8.142;2023-04-24T03:38:02;4.23;;;1.50;;
66559;SDS011;53413;49.878;8.142;2023-04-24T03:40:29;3.60;;;1.60;;
66559;SDS011;53413;49.878;8.142;2023-04-24T03:42:55;4.27;;;1.63;;
66559;SDS011;53413;49.878;8.142;2023-04-24T03:45:20;4.73;;;1.60;;
66559;SDS011;53413;49.878;8.142;2023-04-24T03:47:45;4.43;;;1.80;;
66559;SDS011;53413;49.878;8.142;2023-04-24T03:50:11;4.00;;;1.80;;
66559;SDS011;53413;49.878;8.142;2023-04-24T03:52:36;4.47;;;1.80;;
66559;SDS011;53413;49.878;8.142;2023-04-24T03:55:01;5.10;;;2.10;;
66559;SDS011;53413;49.878;8.142;2023-04-24T03:57:27;5.40;;;2.30;;
66559;SDS011;53413;49.878;8.142;2023-04-24T03:59:53;4.77;;;2.10;;
66559;SDS011;53413;49.878;8.142;2023-04-24T04:02:18;4.88;;;2.13;;
66559;SDS011;53413;49.878;8.142;2023-04-24T04:04:44;5.43;;;2.30;;
66559;SDS011;53413;49.878;8.142;2023-04-24T04:07:09;5.10;;;2.20;;
66559;SDS011;53413;49.878;8.142;2023-04-24T04:09:36;5.10;;;2.15;;
66559;SDS011;53413;49.878;8.142;2023-04-24T04:12:01;4.57;;;2.30;;
66559;SDS011;53413;49.878;8.142;2023-04-24T04:14:27;6.50;;;2.40;;
66559;SDS011;53413;49.878;8.142;2023-04-24T04:16:52;5.13;;;2.27;;
66559;SDS011;53413;49.878;8.142;2023-04-24T04:19:18;5.20;;;2.30;;
66559;SDS011;53413;49.878;8.142;2023-04-24T04:21:43;5.33;;;2.50;;
66559;SDS011;53413;49.878;8.142;2023-04-24T04:24:10;5.32;;;2.60;;
66559;SDS011;53413;49.878;8.142;2023-04-24T04:26:36;6.87;;;2.57;;
66559;SDS011;53413;49.878;8.142;2023-04-24T04:29:02;6.13;;;2.50;;
66559;SDS011;53413;49.878;8.142;2023-04-24T04:31:28;5.80;;;2.58;;
66559;SDS011;53413;49.878;8.142;2023-04-24T04:33:55;5.68;;;2.60;;
66559;SDS011;53413;49.878;8.142;2023-04-24T04:36:20;6.20;;;2.50;;
66559;SDS011;53413;49.878;8.142;2023-04-24T04:38:45;6.80;;;2.80;;
66559;SDS011;53413;49.878;8.142;2023-04-24T04:41:11;5.77;;;2.80;;
66559;SDS011;53413;49.878;8.142;2023-04-24T04:43:36;5.90;;;2.63;;
66559;SDS011;53413;49.878;8.142;2023-04-24T04:46:03;6.63;;;2.92;;
66559;SDS011;53413;49.878;8.142;2023-04-24T04:48:28;6.90;;;2.80;;
66559;SDS011;53413;49.878;8.142;2023-04-24T04:50:53;6.13;;;2.80;;
66559;SDS011;53413;49.878;8.142;2023-04-24T04:53:19;6.38;;;2.83;;
66559;SDS011;53413;49.878;8.142;2023-04-24T04:55:45;6.97;;;3.00;;
66559;SDS011;53413;49.878;8.142;2023-04-24T04:58:11;6.13;;;2.90;;
66559;SDS011;53413;49.878;8.142;2023-04-24T05:00:36;5.90;;;2.70;;
66559;SDS011;53413;49.878;8.142;2023-04-24T05:03:02;7.30;;;3.37;;
66559;SDS011;53413;49.878;8.142;2023-04-24T05:05:28;7.10;;;3.17;;
66559;SDS011;53413;49.878;8.142;2023-04-24T05:07:54;6.75;;;3.22;;
66559;SDS011;53413;49.878;8.142;2023-04-24T05:10:19;7.30;;;2.90;;
66559;SDS011;53413;49.878;8.142;2023-04-24T05:12:44;7.13;;;3.20;;
66559;SDS011;53413;49.878;8.142;2023-04-24T05:15:10;6.20;;;3.03;;
66559;SDS011;53413;49.878;8.142;2023-04-24T05:17:35;7.10;;;3.03;;
66559;SDS011;53413;49.878;8.142;2023-04-24T05:20:01;6.67;;;3.07;;
66559;SDS011;53413;49.878;8.142;2023-04-24T05:22:30;7.85;;;3.20;;
66559;SDS011;53413;49.878;8.142;2023-04-24T05:24:56;8.27;;;3.30;;
66559;SDS011;53413;49.878;8.142;2023-04-24T05:27:21;7.23;;;3.30;;
66559;SDS011;53413;49.878;8.142;2023-04-24T05:29:46;6.70;;;3.10;;
66559;SDS011;53413;49.878;8.142;2023-04-24T05:32:12;6.57;;;3.45;;
66559;SDS011;53413;49.878;8.142;2023-04-24T05:34:37;6.20;;;3.20;;
66559;SDS011;53413;49.878;8.142;2023-04-24T05:37:02;7.03;;;3.10;;
66559;SDS011;53413;49.878;8.142;2023-04-24T05:39:28;6.80;;;3.20;;
66559;SDS011;53413;49.878;8.142;2023-04-24T05:41:54;7.53;;;3.33;;
66559;SDS011;53413;49.878;8.142;2023-04-24T05:44:22;6.07;;;3.20;;
66559;SDS011;53413;49.878;8.142;2023-04-24T05:46:48;8.57;;;3.28;;
66559;SDS011;53413;49.878;8.142;2023-04-24T05:49:13;7.97;;;3.33;;
66559;SDS011;53413;49.878;8.142;2023-04-24T05:51:39;7.57;;;3.47;;
66559;SDS011;53413;49.878;8.142;2023-04-24T05:54:04;7.75;;;3.60;;
66559;SDS011;53413;49.878;8.142;2023-04-24T05:56:30;8.73;;;3.70;;
66559;SDS011;53413;49.878;8.142;2023-04-24T05:58:55;7.43;;;3.47;;
66559;SDS011;53413;49.878;8.142;2023-04-24T06:01:21;7.90;;;3.93;;
66559;SDS011;53413;49.878;8.142;2023-04-24T06:03:46;7.50;;;3.28;;
66559;SDS011;53413;49.878;8.142;2023-04-24T06:06:12;6.80;;;3.53;;
66559;SDS011;53413;49.878;8.142;2023-04-24T06:08:37;7.43;;;3.63;;
66559;SDS011;53413;49.878;8.142;2023-04-24T06:11:02;8.03;;;3.57;;
66559;SDS011;53413;49.878;8.142;2023-04-24T06:13:28;6.80;;;3.50;;
66559;SDS011;53413;49.878;8.142;2023-04-24T06:15:53;8.37;;;4.23;;
66559;SDS011;53413;49.878;8.142;2023-04-24T06:18:19;10.05;;;4.40;;
66559;SDS011;53413;49.878;8.142;2023-04-24T06:20:44;8.97;;;4.17;;
66559;SDS011;53413;49.878;8.142;2023-04-24T06:23:10;9.03;;;4.57;;
66559;SDS011;53413;49.878;8.142;2023-04-24T06:25:36;7.68;;;4.15;;
66559;SDS011;53413;49.878;8.142;2023-04-24T06:28:02;7.43;;;3.90;;
66559;SDS011;53413;49.878;8.142;2023-04-24T06:30:28;7.27;;;3.87;;
66559;SDS011;53413;49.878;8.142;2023-04-24T06:33:02;7.83;;;4.00;;
66559;SDS011;53413;49.878;8.142;2023-04-24T06:35:28;7.07;;;4.10;;
66559;SDS011;53413;49.878;8.142;2023-04-24T06:37:53;7.60;;;4.40;;
66559;SDS011;53413;49.878;8.142;2023-04-24T06:40:18;8.57;;;4.70;;
66559;SDS011;53413;49.878;8.142;2023-04-24T06:42:44;7.20;;;4.45;;
66559;SDS011;53413;49.878;8.142;2023-04-24T06:45:09;6.43;;;3.90;;
66559;SDS011;53413;49.878;8.142;2023-04-24T06:47:35;7.35;;;3.92;;
66559;SDS011;53413;49.878;8.142;2023-04-24T06:50:01;6.72;;;4.20;;
66559;SDS011;53413;49.878;8.142;2023-04-24T06:52:26;5.97;;;3.90;;
66559;SDS011;53413;49.878;8.142;2023-04-24T06:54:51;9.37;;;3.70;;
66559;SDS011;53413;49.878;8.142;2023-04-24T06:57:17;6.93;;;3.70;;
66559;SDS011;53413;49.878;8.142;2023-04-24T06:59:43;6.55;;;3.50;;
66559;SDS011;53413;49.878;8.142;2023-04-24T07:02:08;6.03;;;3.50;;
66559;SDS011;53413;49.878;8.142;2023-04-24T07:04:33;5.97;;;4.23;;
66559;SDS011;53413;49.878;8.142;2023-04-24T07:06:59;6.55;;;3.72;;
66559;SDS011;53413;49.878;8.142;2023-04-24T07:09:25;5.50;;;3.37;;
66559;SDS011;53413;49.878;8.142;2023-04-24T07:11:51;5.60;;;3.80;;
66559;SDS011;53413;49.878;8.142;2023-04-24T07:14:17;5.53;;;3.33;;
66559;SDS011;53413;49.878;8.142;2023-04-24T07:16:43;5.78;;;3.30;;
66559;SDS011;53413;49.878;8.142;2023-04-24T07:19:08;7.13;;;3.65;;
66559;SDS011;53413;49.878;8.142;2023-04-24T07:21:34;5.75;;;3.60;;
66559;SDS011;53413;49.878;8.142;2023-04-24T07:23:59;5.85;;;3.58;;
66559;SDS011;53413;49.878;8.142;2023-04-24T07:26:26;5.00;;;3.20;;
66559;SDS011;53413;49.878;8.142;2023-04-24T07:28:52;5.43;;;3.30;;
66559;SDS011;53413;49.878;8.142;2023-04-24T07:31:17;5.50;;;3.47;;
66559;SDS011;53413;49.878;8.142;2023-04-24T07:33:43;5.20;;;3.30;;
66559;SDS011;53413;49.878;8.142;2023-04-24T07:36:08;4.68;;;3.40;;
66559;SDS011;53413;49.878;8.142;2023-04-24T07:38:40;4.53;;;2.57;;
66559;SDS011;53413;49.878;8.142;2023-04-24T07:41:05;5.07;;;3.60;;
66559;SDS011;53413;49.878;8.142;2023-04-24T07:43:31;4.97;;;2.60;;
66559;SDS011;53413;49.878;8.142;2023-04-24T07:45:56;4.83;;;2.93;;
66559;SDS011;53413;49.878;8.142;2023-04-24T07:48:21;4.67;;;3.03;;
66559;SDS011;53413;49.878;8.142;2023-04-24T07:50:47;5.07;;;3.00;;
66559;SDS011;53413;49.878;8.142;2023-04-24T07:53:12;5.18;;;2.60;;
66559;SDS011;53413;49.878;8.142;2023-04-24T07:55:37;5.13;;;2.70;;
66559;SDS011;53413;49.878;8.142;2023-04-24T07:58:03;4.07;;;2.37;;
66559;SDS011;53413;49.878;8.142;2023-04-24T08:00:29;3.80;;;2.30;;
66559;SDS011;53413;49.878;8.142;2023-04-24T08:02:54;3.75;;;2.10;;
66559;SDS011;53413;49.878;8.142;2023-04-24T08:05:19;3.60;;;2.10;;
66559;SDS011;53413;49.878;8.142;2023-04-24T08:07:45;5.00;;;2.93;;
66559;SDS011;53413;49.878;8.142;2023-04-24T08:10:13;4.18;;;2.20;;
66559;SDS011;53413;49.878;8.142;2023-04-24T08:12:39;3.90;;;2.03;;
66559;SDS011;53413;49.878;8.142;2023-04-24T08:15:05;4.38;;;2.80;;
66559;SDS011;53413;49.878;8.142;2023-04-24T08:17:31;4.47;;;2.77;;
66559;SDS011;53413;49.878;8.142;2023-04-24T08:19:56;5.70;;;2.83;;
66559;SDS011;53413;49.878;8.142;2023-04-24T08:22:26;5.05;;;2.85;;
66559;SDS011;53413;49.878;8.142;2023-04-24T08:24:52;5.07;;;2.58;;
66559;SDS011;53413;49.878;8.142;2023-04-24T08:27:18;5.10;;;2.75;;
66559;SDS011;53413;49.878;8.142;2023-04-24T08:29:43;7.53;;;3.47;;
66559;SDS011;53413;49.878;8.142;2023-04-24T08:32:08;4.93;;;2.77;;
66559;SDS011;53413;49.878;8.142;2023-04-24T08:34:34;4.80;;;2.70;;
66559;SDS011;53413;49.878;8.142;2023-04-24T08:36:59;5.38;;;2.60;;
66559;SDS011;53413;49.878;8.142;2023-04-24T08:39:25;5.60;;;2.70;;
66559;SDS011;53413;49.878;8.142;2023-04-24T08:41:50;5.30;;;2.80;;
66559;SDS011;53413;49.878;8.142;2023-04-24T08:44:17;5.32;;;2.50;;
66559;SDS011;53413;49.878;8.142;2023-04-24T08:46:45;4.93;;;2.53;;
66559;SDS011;53413;49.878;8.142;2023-04-24T08:49:16;5.85;;;2.60;;
66559;SDS011;53413;49.878;8.142;2023-04-24T08:51:45;5.43;;;2.80;;
66559;SDS011;53413;49.878;8.142;2023-04-24T08:54:14;5.90;;;2.70;;
66559;SDS011;53413;49.878;8.142;2023-04-24T08:56:40;5.10;;;3.10;;
66559;SDS011;53413;49.878;8.142;2023-04-24T08:59:09;6.25;;;2.70;;
66559;SDS011;53413;49.878;8.142;2023-04-24T09:01:35;6.75;;;3.28;;
66559;SDS011;53413;49.878;8.142;2023-04-24T09:04:02;5.10;;;3.10;;
66559;SDS011;53413;49.878;8.142;2023-04-24T09:06:29;5.87;;;3.43;;
66559;SDS011;53413;49.878;8.142;2023-04-24T09:08:55;5.80;;;2.80;;
66559;SDS011;53413;49.878;8.142;2023-04-24T09:11:22;5.80;;;2.70;;
66559;SDS011;53413;49.878;8.142;2023-04-24T09:13:49;4.60;;;2.80;;
66559;SDS011;53413;49.878;8.142;2023-04-24T09:16:16;5.22;;;2.40;;
66559;SDS011;53413;49.878;8.142;2023-04-24T09:18:42;13.27;;;7.00;;
66559;SDS011;53413;49.878;8.142;2023-04-24T09:21:07;5.80;;;2.90;;
66559;SDS011;53413;49.878;8.142;2023-04-24T09:23:34;4.45;;;2.20;;
66559;SDS011;53413;49.878;8.142;2023-04-24T09:26:00;6.50;;;2.70;;
66559;SDS011;53413;49.878;8.142;2023-04-24T09:28:37;6.67;;;3.10;;
66559;SDS011;53413;49.878;8.142;2023-04-24T09:33:34;6.22;;;2.67;;
66559;SDS011;53413;49.878;8.142;2023-04-24T09:35:59;4.50;;;2.28;;
66559;SDS011;53413;49.878;8.142;2023-04-24T09:38:37;5.10;;;2.47;;
66559;SDS011;53413;49.878;8.142;2023-04-24T09:41:07;4.53;;;1.88;;
66559;SDS011;53413;49.878;8.142;2023-04-24T09:43:33;5.05;;;2.40;;
66559;SDS011;53413;49.878;8.142;2023-04-24T09:46:04;4.60;;;2.40;;
66559;SDS011;53413;49.878;8.142;2023-04-24T09:48:34;6.20;;;2.20;;
66559;SDS011;53413;49.878;8.142;2023-04-24T09:51:01;5.25;;;2.42;;
66559;SDS011;53413;49.878;8.142;2023-04-24T09:53:28;5.68;;;2.20;;
66559;SDS011;53413;49.878;8.142;2023-04-24T09:55:55;5.65;;;2.70;;
66559;SDS011;53413;49.878;8.142;2023-04-24T09:58:24;5.20;;;2.60;;
66559;SDS011;53413;49.878;8.142;2023-04-24T10:00:54;4.90;;;2.60;;
66559;SDS011;53413;49.878;8.142;2023-04-24T10:03:21;4.60;;;2.60;;
66559;SDS011;53413;49.878;8.142;2023-04-24T10:05:51;5.88;;;3.20;;
66559;SDS011;53413;49.878;8.142;2023-04-24T10:08:16;6.35;;;2.80;;
66559;SDS011;53413;49.878;8.142;2023-04-24T10:10:43;5.43;;;2.30;;
66559;SDS011;53413;49.878;8.142;2023-04-24T10:13:09;5.22;;;2.60;;
66559;SDS011;53413;49.878;8.142;2023-04-24T10:15:37;5.57;;;2.55;;
66559;SDS011;53413;49.878;8.142;2023-04-24T10:18:04;5.00;;;2.37;;
66559;SDS011;53413;49.878;8.142;2023-04-24T10:20:31;5.25;;;2.30;;
66559;SDS011;53413;49.878;8.142;2023-04-24T10:22:57;5.10;;;2.55;;
66559;SDS011;53413;49.878;8.142;2023-04-24T10:25:29;5.43;;;2.70;;
66559;SDS011;53413;49.878;8.142;2023-04-24T10:27:57;5.88;;;2.88;;
66559;SDS011;53413;49.878;8.142;2023-04-24T10:30:24;5.53;;;2.60;;
66559;SDS011;53413;49.878;8.142;2023-04-24T10:36:21;6.25;;;2.20;;
66559;SDS011;53413;49.878;8.142;2023-04-24T10:39:20;5.10;;;2.20;;
66559;SDS011;53413;49.878;8.142;2023-04-24T10:45:25;8.10;;;2.92;;
66559;SDS011;53413;49.878;8.142;2023-04-24T11:49:51;6.07;;;2.92;;
66559;SDS011;53413;49.878;8.142;2023-04-24T11:52:16;6.20;;;3.07;;
66559;SDS011;53413;49.878;8.142;2023-04-24T11:54:49;6.50;;;2.70;;
66559;SDS011;53413;49.878;8.142;2023-04-24T11:57:15;6.47;;;3.20;;
66559;SDS011;53413;49.878;8.142;2023-04-24T11:59:41;6.47;;;2.97;;
66559;SDS011;53413;49.878;8.142;2023-04-24T12:02:06;5.77;;;2.73;;
66559;SDS011;53413;49.878;8.142;2023-04-24T12:04:40;6.73;;;2.90;;
66559;SDS011;53413;49.878;8.142;2023-04-24T12:07:06;6.00;;;2.70;;
66559;SDS011;53413;49.878;8.142;2023-04-24T12:12:23;8.40;;;3.10;;
66559;SDS011;53413;49.878;8.142;2023-04-24T12:14:57;6.55;;;3.10;;
66559;SDS011;53413;49.878;8.142;2023-04-24T12:17:26;6.03;;;3.10;;
66559;SDS011;53413;49.878;8.142;2023-04-24T12:19:56;7.70;;;3.30;;
66559;SDS011;53413;49.878;8.142;2023-04-24T12:22:26;7.05;;;3.00;;
66559;SDS011;53413;49.878;8.142;2023-04-24T12:25:02;6.35;;;2.80;;
66559;SDS011;53413;49.878;8.142;2023-04-24T12:27:33;8.17;;;2.80;;
66559;SDS011;53413;49.878;8.142;2023-04-24T12:29:59;7.72;;;3.08;;
66559;SDS011;53413;49.878;8.142;2023-04-24T12:32:25;6.30;;;3.10;;
66559;SDS011;53413;49.878;8.142;2023-04-24T12:34:51;6.65;;;3.20;;
66559;SDS011;53413;49.878;8.142;2023-04-24T12:37:18;6.35;;;3.20;;
66559;SDS011;53413;49.878;8.142;2023-04-24T12:40:03;6.50;;;3.13;;
66559;SDS011;53413;49.878;8.142;2023-04-24T12:42:31;6.22;;;3.28;;
66559;SDS011;53413;49.878;8.142;2023-04-24T12:44:59;6.80;;;3.40;;
66559;SDS011;53413;49.878;8.142;2023-04-24T12:47:26;6.73;;;3.20;;
66559;SDS011;53413;49.878;8.142;2023-04-24T12:49:53;6.90;;;3.20;;
66559;SDS011;53413;49.878;8.142;2023-04-24T12:52:20;9.13;;;3.28;;
66559;SDS011;53413;49.878;8.142;2023-04-24T12:54:46;7.28;;;3.20;;
66559;SDS011;53413;49.878;8.142;2023-04-24T12:57:12;5.40;;;2.93;;
66559;SDS011;53413;49.878;8.142;2023-04-24T12:59:37;6.37;;;3.10;;
66559;SDS011;53413;49.878;8.142;2023-04-24T13:02:04;6.32;;;3.03;;
66559;SDS011;53413;49.878;8.142;2023-04-24T13:04:29;5.90;;;3.13;;
66559;SDS011;53413;49.878;8.142;2023-04-24T13:06:55;7.30;;;3.50;;
66559;SDS011;53413;49.878;8.142;2023-04-24T13:09:20;7.17;;;3.17;;
66559;SDS011;53413;49.878;8.142;2023-04-24T13:11:45;5.93;;;3.00;;
66559;SDS011;53413;49.878;8.142;2023-04-24T13:14:11;7.77;;;3.07;;
66559;SDS011;53413;49.878;8.142;2023-04-24T13:16:36;6.07;;;3.10;;
66559;SDS011;53413;49.878;8.142;2023-04-24T13:19:01;5.87;;;3.03;;
66559;SDS011;53413;49.878;8.142;2023-04-24T13:21:27;6.67;;;2.80;;
66559;SDS011;53413;49.878;8.142;2023-04-24T13:23:52;6.90;;;3.38;;
66559;SDS011;53413;49.878;8.142;2023-04-24T13:26:18;6.60;;;3.33;;
66559;SDS011;53413;49.878;8.142;2023-04-24T13:28:43;6.50;;;3.30;;
66559;SDS011;53413;49.878;8.142;2023-04-24T13:31:09;6.43;;;2.90;;
66559;SDS011;53413;49.878;8.142;2023-04-24T13:33:34;6.55;;;2.88;;
66559;SDS011;53413;49.878;8.142;2023-04-24T13:36:00;5.40;;;2.70;;
66559;SDS011;53413;49.878;8.142;2023-04-24T13:38:25;7.63;;;2.90;;
66559;SDS011;53413;49.878;8.142;2023-04-24T13:40:50;5.87;;;3.17;;
66559;SDS011;53413;49.878;8.142;2023-04-24T13:43:16;6.28;;;3.00;;
66559;SDS011;53413;49.878;8.142;2023-04-24T13:45:41;6.60;;;2.90;;
66559;SDS011;53413;49.878;8.142;2023-04-24T13:48:06;7.80;;;3.10;;
66559;SDS011;53413;49.878;8.142;2023-04-24T13:50:33;6.15;;;2.88;;
66559;SDS011;53413;49.878;8.142;2023-04-24T13:52:59;5.87;;;2.80;;
66559;SDS011;53413;49.878;8.142;2023-04-24T13:55:26;6.13;;;3.10;;
66559;SDS011;53413;49.878;8.142;2023-04-24T13:57:51;6.83;;;2.80;;
66559;SDS011;53413;49.878;8.142;2023-04-24T14:00:19;6.57;;;3.20;;
66559;SDS011;53413;49.878;8.142;2023-04-24T14:02:45;7.80;;;3.20;;
66559;SDS011;53413;49.878;8.142;2023-04-24T14:05:12;6.43;;;3.00;;
66559;SDS011;53413;49.878;8.142;2023-04-24T14:07:40;6.90;;;3.20;;
66559;SDS011;53413;49.878;8.142;2023-04-24T14:10:05;6.78;;;3.10;;
66559;SDS011;53413;49.878;8.142;2023-04-24T14:12:31;5.93;;;3.30;;
66559;SDS011;53413;49.878;8.142;2023-04-24T14:14:57;7.20;;;3.13;;
66559;SDS011;53413;49.878;8.142;2023-04-24T14:17:22;7.17;;;3.23;;
66559;SDS011;53413;49.878;8.142;2023-04-24T14:19:48;7.10;;;3.20;;
66559;SDS011;53413;49.878;8.142;2023-04-24T14:22:13;8.05;;;3.08;;
66559;SDS011;53413;49.878;8.142;2023-04-24T14:24:38;7.00;;;3.65;;
66559;SDS011;53413;49.878;8.142;2023-04-24T14:27:04;8.47;;;4.17;;
66559;SDS011;53413;49.878;8.142;2023-04-24T14:29:29;6.23;;;3.03;;
66559;SDS011;53413;49.878;8.142;2023-04-24T14:31:55;5.63;;;3.10;;
66559;SDS011;53413;49.878;8.142;2023-04-24T14:34:20;6.83;;;3.23;;
66559;SDS011;53413;49.878;8.142;2023-04-24T14:36:45;5.70;;;3.03;;
66559;SDS011;53413;49.878;8.142;2023-04-24T14:39:11;5.87;;;2.97;;
66559;SDS011;53413;49.878;8.142;2023-04-24T14:41:36;6.07;;;3.00;;
66559;SDS011;53413;49.878;8.142;2023-04-24T14:44:04;6.15;;;2.90;;
66559;SDS011;53413;49.878;8.142;2023-04-24T14:46:29;7.07;;;3.03;;
66559;SDS011;53413;49.878;8.142;2023-04-24T14:48:55;6.90;;;3.33;;
66559;SDS011;53413;49.878;8.142;2023-04-24T14:51:21;7.40;;;3.30;;
66559;SDS011;53413;49.878;8.142;2023-04-24T14:53:47;6.10;;;3.20;;
66559;SDS011;53413;49.878;8.142;2023-04-24T14:56:12;6.77;;;3.30;;
66559;SDS011;53413;49.878;8.142;2023-04-24T14:58:38;7.03;;;3.10;;
66559;SDS011;53413;49.878;8.142;2023-04-24T15:01:03;7.90;;;3.70;;
66559;SDS011;53413;49.878;8.142;2023-04-24T15:03:29;9.77;;;5.88;;
66559;SDS011;53413;49.878;8.142;2023-04-24T15:05:54;7.53;;;4.57;;
66559;SDS011;53413;49.878;8.142;2023-04-24T15:08:20;6.83;;;4.07;;
66559;SDS011;53413;49.878;8.142;2023-04-24T15:10:45;10.20;;;4.60;;
66559;SDS011;53413;49.878;8.142;2023-04-24T15:13:11;6.30;;;3.78;;
66559;SDS011;53413;49.878;8.142;2023-04-24T15:15:37;8.27;;;4.13;;
66559;SDS011;53413;49.878;8.142;2023-04-24T15:18:03;7.80;;;4.20;;
66559;SDS011;53413;49.878;8.142;2023-04-24T15:20:29;7.75;;;4.10;;
66559;SDS011;53413;49.878;8.142;2023-04-24T15:22:54;7.67;;;4.17;;
66559;SDS011;53413;49.878;8.142;2023-04-24T15:25:20;7.07;;;3.70;;
66559;SDS011;53413;49.878;8.142;2023-04-24T15:27:46;7.83;;;3.60;;
66559;SDS011;53413;49.878;8.142;2023-04-24T15:30:11;8.37;;;4.47;;
66559;SDS011;53413;49.878;8.142;2023-04-24T15:32:38;7.85;;;4.43;;
66559;SDS011;53413;49.878;8.142;2023-04-24T15:35:04;7.50;;;3.90;;
66559;SDS011;53413;49.878;8.142;2023-04-24T15:37:30;7.60;;;3.58;;
66559;SDS011;53413;49.878;8.142;2023-04-24T15:39:55;7.20;;;3.92;;
66559;SDS011;53413;49.878;8.142;2023-04-24T15:42:21;6.30;;;3.50;;
66559;SDS011;53413;49.878;8.142;2023-04-24T15:44:46;7.97;;;4.27;;
66559;SDS011;53413;49.878;8.142;2023-04-24T15:47:11;9.20;;;3.80;;
66559;SDS011;53413;49.878;8.142;2023-04-24T15:49:39;8.05;;;3.83;;
66559;SDS011;53413;49.878;8.142;2023-04-24T15:52:04;7.27;;;3.93;;
66559;SDS011;53413;49.878;8.142;2023-04-24T15:54:30;9.07;;;4.50;;
66559;SDS011;53413;49.878;8.142;2023-04-24T15:56:55;18.70;;;8.47;;